createdAt,value
2022-12-25T00:00:20.473Z,9.28
2022-12-25T00:02:14.547Z,9.27
2022-12-25T00:03:14.611Z,9.39
2022-12-25T00:04:14.613Z,9.47
2022-12-25T00:05:14.447Z,9.50
2022-12-25T00:06:14.431Z,9.55
2022-12-25T00:07:14.424Z,9.53
2022-12-25T00:08:14.407Z,9.59
2022-12-25T00:09:14.393Z,9.67
2022-12-25T00:10:14.386Z,9.70
2022-12-25T00:11:14.369Z,9.83
2022-12-25T00:12:14.358Z,9.84
2022-12-25T00:13:14.341Z,9.90
2022-12-25T00:14:14.324Z,9.90
2022-12-25T00:15:14.312Z,9.90
2022-12-25T00:16:14.353Z,9.84
2022-12-25T00:17:14.294Z,9.77
2022-12-25T00:18:14.298Z,9.70
2022-12-25T00:19:14.265Z,9.64
2022-12-25T00:20:14.260Z,9.57
2022-12-25T00:21:14.231Z,9.52
2022-12-25T00:22:14.215Z,9.45
2022-12-25T00:23:14.205Z,9.39
2022-12-25T00:24:14.194Z,9.39
2022-12-25T00:25:14.184Z,9.38
2022-12-25T00:26:14.161Z,9.38
2022-12-25T00:27:14.165Z,9.41
2022-12-25T00:28:14.140Z,9.39
2022-12-25T00:29:14.127Z,9.45
2022-12-25T00:30:14.116Z,9.42
2022-12-25T00:31:14.207Z,9.25
2022-12-25T00:32:14.096Z,9.19
2022-12-25T00:33:14.074Z,9.20
2022-12-25T00:34:14.094Z,9.27
2022-12-25T00:35:14.041Z,9.28
2022-12-25T00:36:14.043Z,9.34
2022-12-25T00:37:14.015Z,9.38
2022-12-25T00:39:13.988Z,9.50
2022-12-25T00:40:13.980Z,9.55
2022-12-25T00:41:13.964Z,9.60
2022-12-25T00:42:13.951Z,9.63
2022-12-25T00:43:13.937Z,9.67
2022-12-25T00:44:14.127Z,9.67
2022-12-25T00:45:15.911Z,9.70
2022-12-25T00:46:14.113Z,9.70
2022-12-25T00:47:13.945Z,9.73
2022-12-25T00:48:13.867Z,9.74
2022-12-25T00:49:13.855Z,9.75
2022-12-25T00:50:13.866Z,9.73
2022-12-25T00:51:13.829Z,9.65
2022-12-25T00:52:13.824Z,9.64
2022-12-25T00:53:13.804Z,9.59
2022-12-25T00:54:13.788Z,9.56
2022-12-25T00:55:13.775Z,9.49
2022-12-25T00:56:13.762Z,9.55
2022-12-25T00:57:13.753Z,9.53
2022-12-25T00:58:13.735Z,9.50
2022-12-25T00:59:13.727Z,9.55
2022-12-25T01:00:13.716Z,9.60
2022-12-25T01:01:13.777Z,9.71
2022-12-25T01:02:13.916Z,9.77
2022-12-25T01:03:13.786Z,9.87
2022-12-25T01:04:13.656Z,9.94
2022-12-25T01:05:13.644Z,9.96
2022-12-25T01:06:13.662Z,9.99
2022-12-25T01:07:13.616Z,10.02
2022-12-25T01:08:13.606Z,10.08
2022-12-25T01:09:13.590Z,10.17
2022-12-25T01:10:13.573Z,10.26
2022-12-25T01:11:13.560Z,10.33
2022-12-25T01:12:13.545Z,10.38
2022-12-25T01:13:13.584Z,10.44
2022-12-25T01:14:13.529Z,10.52
2022-12-25T01:15:13.514Z,10.54
2022-12-25T01:16:13.538Z,10.45
2022-12-25T01:17:13.480Z,10.33
2022-12-25T01:18:13.462Z,10.23
2022-12-25T01:19:13.465Z,10.15
2022-12-25T01:20:13.459Z,10.08
2022-12-25T01:21:13.429Z,10.04
2022-12-25T01:22:13.441Z,9.99
2022-12-25T01:23:13.398Z,9.94
2022-12-25T01:24:13.382Z,9.96
2022-12-25T01:25:13.380Z,9.94
2022-12-25T01:26:13.388Z,9.89
2022-12-25T01:27:13.364Z,9.87
2022-12-25T01:28:13.332Z,9.84
2022-12-25T01:29:13.316Z,9.77
2022-12-25T01:30:13.337Z,9.77
2022-12-25T01:31:13.316Z,9.71
2022-12-25T01:32:13.312Z,9.64
2022-12-25T01:33:13.270Z,9.65
2022-12-25T01:34:13.246Z,9.60
2022-12-25T01:35:13.235Z,9.68
2022-12-25T01:36:13.228Z,9.64
2022-12-25T01:37:13.205Z,9.63
2022-12-25T01:38:13.215Z,9.68
2022-12-25T01:39:13.183Z,9.67
2022-12-25T01:40:13.201Z,9.71
2022-12-25T01:41:13.160Z,9.77
2022-12-25T01:42:13.139Z,9.79
2022-12-25T01:43:18.524Z,9.81
2022-12-25T01:44:13.115Z,9.84
2022-12-25T01:45:13.119Z,9.87
2022-12-25T01:46:13.192Z,9.91
2022-12-25T01:47:13.079Z,9.90
2022-12-25T01:48:13.056Z,9.89
2022-12-25T01:49:13.045Z,9.90
2022-12-25T01:50:13.031Z,9.90
2022-12-25T01:51:13.020Z,9.93
2022-12-25T01:52:13.003Z,9.97
2022-12-25T01:53:12.996Z,9.97
2022-12-25T01:54:13.004Z,9.96
2022-12-25T01:55:12.964Z,9.94
2022-12-25T01:56:12.956Z,9.93
2022-12-25T01:57:12.937Z,9.96
2022-12-25T01:58:12.921Z,9.97
2022-12-25T01:59:12.910Z,10.02
2022-12-25T02:00:12.896Z,10.07
2022-12-25T02:01:12.917Z,10.05
2022-12-25T02:02:13.081Z,9.99
2022-12-25T02:03:12.904Z,10.07
2022-12-25T02:04:12.841Z,10.04
2022-12-25T02:05:12.831Z,10.02
2022-12-25T02:06:12.812Z,10.02
2022-12-25T02:07:12.809Z,9.99
2022-12-25T02:08:12.783Z,10.02
2022-12-25T02:09:12.775Z,10.02
2022-12-25T02:10:12.794Z,10.04
2022-12-25T02:11:12.750Z,10.01
2022-12-25T02:12:12.732Z,10.02
2022-12-25T02:13:12.720Z,10.01
2022-12-25T02:14:12.705Z,10.07
2022-12-25T02:15:12.696Z,10.08
2022-12-25T02:16:12.789Z,10.11
2022-12-25T02:17:12.691Z,10.05
2022-12-25T02:18:12.652Z,10.07
2022-12-25T02:19:12.662Z,10.11
2022-12-25T02:20:12.623Z,10.11
2022-12-25T02:21:12.613Z,10.15
2022-12-25T02:22:12.596Z,10.17
2022-12-25T02:23:12.586Z,10.12
2022-12-25T02:24:12.574Z,10.12
2022-12-25T02:25:12.561Z,10.14
2022-12-25T02:26:12.570Z,10.20
2022-12-25T02:27:12.533Z,10.18
2022-12-25T02:28:12.517Z,10.17
2022-12-25T02:29:12.511Z,10.14
2022-12-25T02:30:12.505Z,10.11
2022-12-25T02:31:12.492Z,10.08
2022-12-25T02:32:12.559Z,10.09
2022-12-25T02:33:12.452Z,10.11
2022-12-25T02:34:12.434Z,10.07
2022-12-25T02:35:12.444Z,10.07
2022-12-25T02:36:12.413Z,10.04
2022-12-25T02:37:12.402Z,10.07
2022-12-25T02:38:12.383Z,10.09
2022-12-25T02:39:12.375Z,10.08
2022-12-25T02:40:12.354Z,10.08
2022-12-25T02:41:12.342Z,10.04
2022-12-25T02:42:12.355Z,9.99
2022-12-25T02:43:12.315Z,9.96
2022-12-25T02:44:12.299Z,9.94
2022-12-25T02:45:12.293Z,9.97
2022-12-25T02:46:12.312Z,9.97
2022-12-25T02:47:12.260Z,10.07
2022-12-25T02:48:12.246Z,9.94
2022-12-25T02:49:12.260Z,9.91
2022-12-25T02:50:12.228Z,9.84
2022-12-25T02:51:12.207Z,9.70
2022-12-25T02:52:12.195Z,9.67
2022-12-25T02:53:12.181Z,9.65
2022-12-25T02:54:12.183Z,9.67
2022-12-25T02:55:12.167Z,9.52
2022-12-25T02:56:12.138Z,9.38
2022-12-25T02:57:12.129Z,9.46
2022-12-25T02:58:12.137Z,9.49
2022-12-25T02:59:12.103Z,9.45
2022-12-25T03:00:12.082Z,9.52
2022-12-25T03:01:12.107Z,9.53
2022-12-25T03:02:12.384Z,9.56
2022-12-25T03:03:12.076Z,9.57
2022-12-25T03:04:12.060Z,9.67
2022-12-25T03:05:12.021Z,9.52
2022-12-25T03:06:12.004Z,9.56
2022-12-25T03:07:11.994Z,9.59
2022-12-25T03:08:11.983Z,9.63
2022-12-25T03:09:11.967Z,9.64
2022-12-25T03:10:11.951Z,9.57
2022-12-25T03:11:11.946Z,9.57
2022-12-25T03:12:11.925Z,9.60
2022-12-25T03:13:11.915Z,9.64
2022-12-25T03:14:11.923Z,9.67
2022-12-25T03:15:11.882Z,9.74
2022-12-25T03:16:11.919Z,9.68
2022-12-25T03:17:11.886Z,9.56
2022-12-25T03:18:11.851Z,9.67
2022-12-25T03:19:11.960Z,9.70
2022-12-25T03:20:11.821Z,9.59
2022-12-25T03:21:11.818Z,9.67
2022-12-25T03:22:11.794Z,9.75
2022-12-25T03:23:11.775Z,9.75
2022-12-25T03:24:11.763Z,9.77
2022-12-25T03:25:11.764Z,9.84
2022-12-25T03:26:11.736Z,9.90
2022-12-25T03:27:11.720Z,9.90
2022-12-25T03:28:11.708Z,9.97
2022-12-25T03:29:11.707Z,10.01
2022-12-25T03:30:11.713Z,10.04
2022-12-25T03:31:11.730Z,10.04
2022-12-25T03:32:11.655Z,10.05
2022-12-25T03:33:29.861Z,10.05
2022-12-25T03:34:11.628Z,10.05
2022-12-25T03:35:11.628Z,10.12
2022-12-25T03:36:11.599Z,10.15
2022-12-25T03:37:11.598Z,10.20
2022-12-25T03:38:11.572Z,10.23
2022-12-25T03:39:11.559Z,10.22
2022-12-25T03:40:11.552Z,10.22
2022-12-25T03:41:11.533Z,10.14
2022-12-25T03:42:11.540Z,10.15
2022-12-25T03:43:11.505Z,10.17
2022-12-25T03:44:11.491Z,10.15
2022-12-25T03:45:11.477Z,10.18
2022-12-25T03:46:11.533Z,10.11
2022-12-25T03:47:11.455Z,10.08
2022-12-25T03:48:11.438Z,10.05
2022-12-25T03:49:11.423Z,10.05
2022-12-25T03:50:11.413Z,9.99
2022-12-25T03:51:11.396Z,9.94
2022-12-25T03:52:11.385Z,9.93
2022-12-25T03:53:11.379Z,9.93
2022-12-25T03:54:11.357Z,9.93
2022-12-25T03:55:11.342Z,9.94
2022-12-25T03:56:11.338Z,9.94
2022-12-25T03:57:11.320Z,9.96
2022-12-25T03:58:11.308Z,9.96
2022-12-25T03:59:11.292Z,9.99
2022-12-25T04:00:11.287Z,9.96
2022-12-25T04:01:11.305Z,9.93
2022-12-25T04:02:11.449Z,9.89
2022-12-25T04:03:11.331Z,9.89
2022-12-25T04:04:11.225Z,9.87
2022-12-25T04:05:11.214Z,9.84
2022-12-25T04:06:11.202Z,9.77
2022-12-25T04:07:11.183Z,9.87
2022-12-25T04:08:11.175Z,9.84
2022-12-25T04:09:11.161Z,9.77
2022-12-25T04:10:11.145Z,9.87
2022-12-25T04:11:11.128Z,9.86
2022-12-25T04:12:11.120Z,9.79
2022-12-25T04:13:11.104Z,9.81
2022-12-25T04:14:11.090Z,9.83
2022-12-25T04:15:11.075Z,9.86
2022-12-25T04:16:11.156Z,9.87
2022-12-25T04:17:11.050Z,9.87
2022-12-25T04:18:11.059Z,9.94
2022-12-25T04:19:11.021Z,9.90
2022-12-25T04:20:11.006Z,9.91
2022-12-25T04:21:10.995Z,9.94
2022-12-25T04:22:10.981Z,9.97
2022-12-25T04:23:10.970Z,10.01
2022-12-25T04:24:10.954Z,10.02
2022-12-25T04:25:10.940Z,10.08
2022-12-25T04:26:10.928Z,10.08
2022-12-25T04:27:10.926Z,10.14
2022-12-25T04:28:10.904Z,10.17
2022-12-25T04:29:10.886Z,10.23
2022-12-25T04:30:10.878Z,10.14
2022-12-25T04:31:10.943Z,10.04
2022-12-25T04:32:10.846Z,9.73
2022-12-25T04:33:10.831Z,9.57
2022-12-25T04:34:10.865Z,9.45
2022-12-25T04:35:10.804Z,9.41
2022-12-25T04:36:10.797Z,9.47
2022-12-25T04:37:10.796Z,9.50
2022-12-25T04:38:10.768Z,9.53
2022-12-25T04:39:10.766Z,9.56
2022-12-25T04:40:10.739Z,9.63
2022-12-25T04:41:10.725Z,9.65
2022-12-25T04:42:10.719Z,9.70
2022-12-25T04:43:10.701Z,9.74
2022-12-25T04:44:10.693Z,9.81
2022-12-25T04:45:10.685Z,9.74
2022-12-25T04:46:10.754Z,9.77
2022-12-25T04:47:11.790Z,9.84
2022-12-25T04:48:10.633Z,9.89
2022-12-25T04:49:10.618Z,9.89
2022-12-25T04:50:10.638Z,9.94
2022-12-25T04:51:10.597Z,9.97
2022-12-25T04:52:10.577Z,9.97
2022-12-25T04:53:10.566Z,10.05
2022-12-25T04:54:10.554Z,10.11
2022-12-25T04:55:10.545Z,10.18
2022-12-25T04:56:10.522Z,10.27
2022-12-25T04:57:10.512Z,10.11
2022-12-25T04:58:10.496Z,9.94
2022-12-25T04:59:10.483Z,9.75
2022-12-25T05:00:10.478Z,9.81
2022-12-25T05:01:10.455Z,9.86
2022-12-25T05:02:10.564Z,9.81
2022-12-25T05:03:10.528Z,9.84
2022-12-25T05:04:10.415Z,9.84
2022-12-25T05:05:10.411Z,9.84
2022-12-25T05:06:10.414Z,9.84
2022-12-25T05:07:10.376Z,9.91
2022-12-25T05:08:10.362Z,9.90
2022-12-25T05:09:10.358Z,9.91
2022-12-25T05:10:10.333Z,9.97
2022-12-25T05:11:10.335Z,9.93
2022-12-25T05:12:10.305Z,9.97
2022-12-25T05:13:10.291Z,9.97
2022-12-25T05:14:10.289Z,10.01
2022-12-25T05:15:10.265Z,10.07
2022-12-25T05:16:10.352Z,10.01
2022-12-25T05:17:10.241Z,10.04
2022-12-25T05:18:10.237Z,10.04
2022-12-25T05:19:10.210Z,10.07
2022-12-25T05:20:10.201Z,10.01
2022-12-25T05:21:10.181Z,10.05
2022-12-25T05:22:10.443Z,9.99
2022-12-25T05:23:10.156Z,10.04
2022-12-25T05:24:10.142Z,10.01
2022-12-25T05:25:10.132Z,10.02
2022-12-25T05:26:10.119Z,10.02
2022-12-25T05:27:10.122Z,10.07
2022-12-25T05:28:10.089Z,10.02
2022-12-25T05:29:10.074Z,9.99
2022-12-25T05:30:10.064Z,10.02
2022-12-25T05:31:10.116Z,10.04
2022-12-25T05:32:10.043Z,10.02
2022-12-25T05:33:10.019Z,10.07
2022-12-25T05:34:10.012Z,10.11
2022-12-25T05:35:09.993Z,10.14
2022-12-25T05:36:09.979Z,10.14
2022-12-25T05:37:09.964Z,10.12
2022-12-25T05:38:09.973Z,10.11
2022-12-25T05:39:09.944Z,10.15
2022-12-25T05:40:09.928Z,10.08
2022-12-25T05:41:09.923Z,10.02
2022-12-25T05:42:09.898Z,9.94
2022-12-25T05:43:09.885Z,9.87
2022-12-25T05:44:09.871Z,9.81
2022-12-25T05:45:09.857Z,9.77
2022-12-25T05:46:09.930Z,9.77
2022-12-25T05:47:09.893Z,9.75
2022-12-25T05:48:09.817Z,9.84
2022-12-25T05:49:09.807Z,9.87
2022-12-25T05:50:09.794Z,9.91
2022-12-25T05:51:09.783Z,9.97
2022-12-25T05:52:09.761Z,10.02
2022-12-25T05:53:09.748Z,10.04
2022-12-25T05:54:09.765Z,10.07
2022-12-25T05:55:09.720Z,10.12
2022-12-25T05:56:09.712Z,10.20
2022-12-25T05:57:09.693Z,10.20
2022-12-25T05:58:09.680Z,10.27
2022-12-25T05:59:09.677Z,10.34
2022-12-25T06:00:09.658Z,10.42
2022-12-25T06:01:09.639Z,10.36
2022-12-25T06:02:09.732Z,10.32
2022-12-25T06:03:09.806Z,10.36
2022-12-25T06:04:12.774Z,10.38
2022-12-25T06:05:09.586Z,10.40
2022-12-25T06:06:09.573Z,10.41
2022-12-25T06:07:09.562Z,10.50
2022-12-25T06:08:09.549Z,10.50
2022-12-25T06:09:09.536Z,10.50
2022-12-25T06:10:09.542Z,10.48
2022-12-25T06:11:09.526Z,10.48
2022-12-25T06:12:09.505Z,10.54
2022-12-25T06:13:09.481Z,10.47
2022-12-25T06:14:09.468Z,10.44
2022-12-25T06:15:09.454Z,10.41
2022-12-25T06:16:09.530Z,10.41
2022-12-25T06:17:09.428Z,10.33
2022-12-25T06:18:09.425Z,10.29
2022-12-25T06:19:09.450Z,10.32
2022-12-25T06:20:09.389Z,10.27
2022-12-25T06:21:09.377Z,10.26
2022-12-25T06:22:09.364Z,10.27
2022-12-25T06:23:09.477Z,10.29
2022-12-25T06:24:09.373Z,10.27
2022-12-25T06:25:09.317Z,10.29
2022-12-25T06:26:09.335Z,10.32
2022-12-25T06:27:09.301Z,10.30
2022-12-25T06:28:09.283Z,10.34
2022-12-25T06:29:09.269Z,10.40
2022-12-25T06:30:09.259Z,10.45
2022-12-25T06:31:09.445Z,10.47
2022-12-25T06:32:09.246Z,10.48
2022-12-25T06:33:09.218Z,10.44
2022-12-25T06:34:09.217Z,10.44
2022-12-25T06:35:09.188Z,10.44
2022-12-25T06:36:09.183Z,10.47
2022-12-25T06:37:09.161Z,10.45
2022-12-25T06:38:09.151Z,10.42
2022-12-25T06:39:09.137Z,10.45
2022-12-25T06:40:09.133Z,10.45
2022-12-25T06:41:09.119Z,10.50
2022-12-25T06:42:09.124Z,10.48
2022-12-25T06:43:09.087Z,10.51
2022-12-25T06:44:09.076Z,10.55
2022-12-25T06:45:09.067Z,10.54
2022-12-25T06:46:09.088Z,10.52
2022-12-25T06:47:09.033Z,10.52
2022-12-25T06:48:09.021Z,10.45
2022-12-25T06:49:09.007Z,10.42
2022-12-25T06:50:08.999Z,10.44
2022-12-25T06:51:08.984Z,10.44
2022-12-25T06:52:08.967Z,10.47
2022-12-25T06:53:08.952Z,10.50
2022-12-25T06:54:08.946Z,10.45
2022-12-25T06:55:08.950Z,10.47
2022-12-25T06:56:08.934Z,10.47
2022-12-25T06:57:08.902Z,10.48
2022-12-25T06:58:08.914Z,10.47
2022-12-25T06:59:08.875Z,10.52
2022-12-25T07:00:08.885Z,10.59
2022-12-25T07:01:08.930Z,10.51
2022-12-25T07:02:08.960Z,10.51
2022-12-25T07:03:08.911Z,10.52
2022-12-25T07:04:08.812Z,10.58
2022-12-25T07:05:08.793Z,10.59
2022-12-25T07:06:08.787Z,10.65
2022-12-25T07:07:09.622Z,10.60
2022-12-25T07:08:08.761Z,10.63
2022-12-25T07:09:08.746Z,10.63
2022-12-25T07:10:08.749Z,10.66
2022-12-25T07:11:08.721Z,10.66
2022-12-25T07:12:08.708Z,10.63
2022-12-25T07:13:08.699Z,10.62
2022-12-25T07:14:08.704Z,10.67
2022-12-25T07:15:08.673Z,10.69
2022-12-25T07:16:08.698Z,10.72
2022-12-25T07:17:08.640Z,10.69
2022-12-25T07:18:08.627Z,10.58
2022-12-25T07:19:08.623Z,10.60
2022-12-25T07:20:08.597Z,10.60
2022-12-25T07:21:08.590Z,10.60
2022-12-25T07:22:08.572Z,10.62
2022-12-25T07:23:08.561Z,10.54
2022-12-25T07:24:08.546Z,10.59
2022-12-25T07:25:08.551Z,10.51
2022-12-25T07:26:08.519Z,10.51
2022-12-25T07:27:08.546Z,10.55
2022-12-25T07:28:08.495Z,10.60
2022-12-25T07:29:08.484Z,10.59
2022-12-25T07:30:08.493Z,10.59
2022-12-25T07:31:08.455Z,10.54
2022-12-25T07:32:08.490Z,10.47
2022-12-25T07:33:08.435Z,10.50
2022-12-25T07:34:08.424Z,10.54
2022-12-25T07:35:08.405Z,10.60
2022-12-25T07:36:08.389Z,10.66
2022-12-25T07:37:08.377Z,10.65
2022-12-25T07:38:08.365Z,10.67
2022-12-25T07:39:08.351Z,10.75
2022-12-25T07:40:08.337Z,10.73
2022-12-25T07:41:08.327Z,10.73
2022-12-25T07:42:08.311Z,10.75
2022-12-25T07:43:08.301Z,10.72
2022-12-25T07:44:08.285Z,10.73
2022-12-25T07:45:08.274Z,10.77
2022-12-25T07:46:08.397Z,10.77
2022-12-25T07:47:08.249Z,10.66
2022-12-25T07:48:13.359Z,10.69
2022-12-25T07:49:08.226Z,10.73
2022-12-25T07:50:08.207Z,10.69
2022-12-25T07:51:08.213Z,10.70
2022-12-25T07:52:08.194Z,10.73
2022-12-25T07:53:08.171Z,10.80
2022-12-25T07:54:08.181Z,10.87
2022-12-25T07:55:08.144Z,10.83
2022-12-25T07:56:08.130Z,10.80
2022-12-25T07:57:08.117Z,10.81
2022-12-25T07:58:08.105Z,10.80
2022-12-25T07:59:08.090Z,10.84
2022-12-25T08:00:08.077Z,10.87
2022-12-25T08:01:08.170Z,10.91
2022-12-25T08:03:08.426Z,10.99
2022-12-25T08:04:08.093Z,11.05
2022-12-25T08:05:08.012Z,11.01
2022-12-25T08:06:08.000Z,10.98
2022-12-25T08:07:07.987Z,11.01
2022-12-25T08:08:07.975Z,11.03
2022-12-25T08:09:07.961Z,11.02
2022-12-25T08:10:07.951Z,11.10
2022-12-25T08:11:07.935Z,11.05
2022-12-25T08:12:07.922Z,11.10
2022-12-25T08:13:14.202Z,11.06
2022-12-25T08:14:09.897Z,11.09
2022-12-25T08:15:07.896Z,11.13
2022-12-25T08:16:07.915Z,11.10
2022-12-25T08:17:07.977Z,11.08
2022-12-25T08:18:07.869Z,11.14
2022-12-25T08:19:07.837Z,11.25
2022-12-25T08:20:07.818Z,11.36
2022-12-25T08:21:07.805Z,11.32
2022-12-25T08:22:07.789Z,11.28
2022-12-25T08:23:07.776Z,11.37
2022-12-25T08:24:07.772Z,11.36
2022-12-25T08:25:07.752Z,11.44
2022-12-25T08:26:07.749Z,11.40
2022-12-25T08:27:07.725Z,11.43
2022-12-25T08:28:07.714Z,11.42
2022-12-25T08:29:07.699Z,11.47
2022-12-25T08:30:07.684Z,11.44
2022-12-25T08:31:07.796Z,11.44
2022-12-25T08:32:07.658Z,11.43
2022-12-25T08:33:07.655Z,11.46
2022-12-25T08:34:07.656Z,11.51
2022-12-25T08:35:07.623Z,11.54
2022-12-25T08:36:07.621Z,11.58
2022-12-25T08:37:07.595Z,11.46
2022-12-25T08:38:07.582Z,11.37
2022-12-25T08:39:07.572Z,11.42
2022-12-25T08:40:07.561Z,11.43
2022-12-25T08:41:07.540Z,11.43
2022-12-25T08:42:07.536Z,11.57
2022-12-25T08:43:07.519Z,11.60
2022-12-25T08:44:07.501Z,11.60
2022-12-25T08:45:07.492Z,11.65
2022-12-25T08:46:07.541Z,11.57
2022-12-25T08:47:07.465Z,11.47
2022-12-25T08:48:07.451Z,11.47
2022-12-25T08:49:07.438Z,11.54
2022-12-25T08:50:07.460Z,11.51
2022-12-25T08:51:07.411Z,11.51
2022-12-25T08:52:07.400Z,11.49
2022-12-25T08:53:07.392Z,11.58
2022-12-25T08:54:07.371Z,11.67
2022-12-25T08:55:07.359Z,11.61
2022-12-25T08:56:07.355Z,11.62
2022-12-25T08:57:07.331Z,11.62
2022-12-25T08:58:07.320Z,11.55
2022-12-25T08:59:07.307Z,11.52
2022-12-25T09:00:07.291Z,11.58
2022-12-25T09:01:07.328Z,11.55
2022-12-25T09:02:07.437Z,11.58
2022-12-25T09:03:07.360Z,11.60
2022-12-25T09:04:07.240Z,11.64
2022-12-25T09:05:07.229Z,11.69
2022-12-25T09:06:07.248Z,11.62
2022-12-25T09:07:07.202Z,11.64
2022-12-25T09:08:07.190Z,11.70
2022-12-25T09:09:07.185Z,11.72
2022-12-25T09:10:07.160Z,11.75
2022-12-25T09:11:07.152Z,11.73
2022-12-25T09:12:07.138Z,11.78
2022-12-25T09:13:07.126Z,11.88
2022-12-25T09:14:07.118Z,11.90
2022-12-25T09:15:07.100Z,11.91
2022-12-25T09:16:07.280Z,11.93
2022-12-25T09:17:07.069Z,12.00
2022-12-25T09:18:07.091Z,12.04
2022-12-25T09:19:07.046Z,12.06
2022-12-25T09:20:07.031Z,11.95
2022-12-25T09:21:07.020Z,11.94
2022-12-25T09:22:07.035Z,11.93
2022-12-25T09:23:13.299Z,11.91
2022-12-25T09:24:06.982Z,12.00
2022-12-25T09:25:06.965Z,12.06
2022-12-25T09:26:06.961Z,12.09
2022-12-25T09:27:06.945Z,12.13
2022-12-25T09:28:06.923Z,12.22
2022-12-25T09:29:06.917Z,12.13
2022-12-25T09:30:06.899Z,12.13
2022-12-25T09:31:06.938Z,12.09
2022-12-25T09:32:06.873Z,12.04
2022-12-25T09:33:06.864Z,12.08
2022-12-25T09:34:06.845Z,12.13
2022-12-25T09:35:06.843Z,12.11
2022-12-25T09:36:06.832Z,12.16
2022-12-25T09:37:06.807Z,12.13
2022-12-25T09:38:06.814Z,12.15
2022-12-25T09:39:06.780Z,12.09
2022-12-25T09:40:06.765Z,12.03
2022-12-25T09:41:06.751Z,11.95
2022-12-25T09:42:06.739Z,11.88
2022-12-25T09:43:06.728Z,11.79
2022-12-25T09:44:06.720Z,11.76
2022-12-25T09:45:06.700Z,11.72
2022-12-25T09:46:06.722Z,11.64
2022-12-25T09:47:06.685Z,11.54
2022-12-25T09:48:06.664Z,11.55
2022-12-25T09:49:06.648Z,11.62
2022-12-25T09:50:06.646Z,11.64
2022-12-25T09:51:06.626Z,11.64
2022-12-25T09:52:06.608Z,11.62
2022-12-25T09:53:06.601Z,11.72
2022-12-25T09:54:06.615Z,11.69
2022-12-25T09:55:06.570Z,11.60
2022-12-25T09:56:06.554Z,11.60
2022-12-25T09:57:06.544Z,11.60
2022-12-25T09:58:06.527Z,11.67
2022-12-25T09:59:06.517Z,11.72
2022-12-25T10:00:06.508Z,11.69
2022-12-25T10:01:06.555Z,11.78
2022-12-25T10:02:06.566Z,11.82
2022-12-25T10:03:06.738Z,11.76
2022-12-25T10:04:06.453Z,11.82
2022-12-25T10:05:06.438Z,11.86
2022-12-25T10:06:06.420Z,11.73
2022-12-25T10:07:06.413Z,11.82
2022-12-25T10:08:06.396Z,11.90
2022-12-25T10:09:06.386Z,11.98
2022-12-25T10:10:06.393Z,12.04
2022-12-25T10:11:06.368Z,12.03
2022-12-25T10:12:06.349Z,11.94
2022-12-25T10:13:06.336Z,11.94
2022-12-25T10:14:06.324Z,12.01
2022-12-25T10:15:06.306Z,12.01
2022-12-25T10:16:06.401Z,12.13
2022-12-25T10:17:06.285Z,12.20
2022-12-25T10:18:06.277Z,12.11
2022-12-25T10:19:06.256Z,12.16
2022-12-25T10:20:06.240Z,12.18
2022-12-25T10:21:12.638Z,12.18
2022-12-25T10:22:08.212Z,12.19
2022-12-25T10:23:06.202Z,12.18
2022-12-25T10:24:06.187Z,12.27
2022-12-25T10:25:06.175Z,12.37
2022-12-25T10:26:06.184Z,12.44
2022-12-25T10:27:06.149Z,12.51
2022-12-25T10:28:06.134Z,12.34
2022-12-25T10:29:06.137Z,12.15
2022-12-25T10:30:06.108Z,12.03
2022-12-25T10:31:06.155Z,12.06
2022-12-25T10:32:06.081Z,11.91
2022-12-25T10:33:06.068Z,11.90
2022-12-25T10:34:06.061Z,12.03
2022-12-25T10:35:06.042Z,12.04
2022-12-25T10:36:06.029Z,12.16
2022-12-25T10:37:06.018Z,12.22
2022-12-25T10:38:06.016Z,12.31
2022-12-25T10:39:05.996Z,12.37
2022-12-25T10:40:05.975Z,12.40
2022-12-25T10:41:05.967Z,12.52
2022-12-25T10:42:05.973Z,12.37
2022-12-25T10:43:05.940Z,12.37
2022-12-25T10:44:05.932Z,12.49
2022-12-25T10:45:05.921Z,12.52
2022-12-25T10:46:05.956Z,12.65
2022-12-25T10:47:05.896Z,12.71
2022-12-25T10:48:07.846Z,12.75
2022-12-25T10:49:05.893Z,12.79
2022-12-25T10:50:05.846Z,12.95
2022-12-25T10:51:05.829Z,12.96
2022-12-25T10:52:05.819Z,13.05
2022-12-25T10:53:05.809Z,13.11
2022-12-25T10:54:05.804Z,13.15
2022-12-25T10:55:05.781Z,13.20
2022-12-25T10:56:05.768Z,13.15
2022-12-25T10:57:05.769Z,13.12
2022-12-25T10:58:05.764Z,13.22
2022-12-25T10:59:05.728Z,13.08
2022-12-25T11:00:05.725Z,13.14
2022-12-25T11:01:05.701Z,12.97
2022-12-25T11:02:05.777Z,13.03
2022-12-25T11:03:05.966Z,13.12
2022-12-25T11:04:05.700Z,13.15
2022-12-25T11:05:05.663Z,13.20
2022-12-25T11:06:05.639Z,13.23
2022-12-25T11:07:05.635Z,13.20
2022-12-25T11:08:05.623Z,13.15
2022-12-25T11:09:05.605Z,13.23
2022-12-25T11:10:06.171Z,13.23
2022-12-25T11:11:05.578Z,13.20
2022-12-25T11:12:05.564Z,13.14
2022-12-25T11:13:05.550Z,13.11
2022-12-25T11:14:05.570Z,13.11
2022-12-25T11:15:05.523Z,12.97
2022-12-25T11:16:05.608Z,13.00
2022-12-25T11:17:05.499Z,12.95
2022-12-25T11:18:05.486Z,13.00
2022-12-25T11:19:05.474Z,13.01
2022-12-25T11:20:05.459Z,12.96
2022-12-25T11:21:05.448Z,13.03
2022-12-25T11:22:05.440Z,13.07
2022-12-25T11:23:05.423Z,12.96
2022-12-25T11:24:05.415Z,12.82
2022-12-25T11:25:05.396Z,12.82
2022-12-25T11:26:05.399Z,12.86
2022-12-25T11:27:05.378Z,12.90
2022-12-25T11:28:05.353Z,12.82
2022-12-25T11:29:05.344Z,12.78
2022-12-25T11:30:06.311Z,12.77
2022-12-25T11:31:05.329Z,12.77
2022-12-25T11:32:05.314Z,12.77
2022-12-25T11:33:05.291Z,12.83
2022-12-25T11:34:05.277Z,12.82
2022-12-25T11:35:05.264Z,12.82
2022-12-25T11:36:05.251Z,12.72
2022-12-25T11:37:05.241Z,12.67
2022-12-25T11:38:05.229Z,12.70
2022-12-25T11:39:05.217Z,12.71
2022-12-25T11:40:05.250Z,12.72
2022-12-25T11:41:05.188Z,12.78
2022-12-25T11:42:05.175Z,12.78
2022-12-25T11:43:08.227Z,12.83
2022-12-25T11:44:05.174Z,12.87
2022-12-25T11:45:05.143Z,12.93
2022-12-25T11:46:05.242Z,13.04
2022-12-25T11:47:05.252Z,13.08
2022-12-25T11:48:05.100Z,13.10
2022-12-25T11:49:05.087Z,13.12
2022-12-25T11:50:05.133Z,13.07
2022-12-25T11:51:05.061Z,13.12
2022-12-25T11:52:05.049Z,13.15
2022-12-25T11:53:05.033Z,13.12
2022-12-25T11:54:05.051Z,13.00
2022-12-25T11:55:05.010Z,13.00
2022-12-25T11:56:05.003Z,12.93
2022-12-25T11:57:04.985Z,12.87
2022-12-25T11:58:04.984Z,12.90
2022-12-25T11:59:04.959Z,13.07
2022-12-25T12:00:04.951Z,13.07
2022-12-25T12:01:04.942Z,12.95
2022-12-25T12:02:05.050Z,12.97
2022-12-25T12:03:05.034Z,13.05
2022-12-25T12:04:04.932Z,13.15
2022-12-25T12:05:04.879Z,13.33
2022-12-25T12:06:04.871Z,13.37
2022-12-25T12:07:04.879Z,13.62
2022-12-25T12:08:04.849Z,13.72
2022-12-25T12:09:04.825Z,13.90
2022-12-25T12:10:04.816Z,13.80
2022-12-25T12:11:04.798Z,13.80
2022-12-25T12:12:04.790Z,13.81
2022-12-25T12:13:04.769Z,13.76
2022-12-25T12:14:04.758Z,13.88
2022-12-25T12:15:04.755Z,13.91
2022-12-25T12:16:04.813Z,13.77
2022-12-25T12:17:04.722Z,13.74
2022-12-25T12:18:04.739Z,13.81
2022-12-25T12:19:04.699Z,13.72
2022-12-25T12:20:04.688Z,13.72
2022-12-25T12:21:04.664Z,13.63
2022-12-25T12:22:04.656Z,13.65
2022-12-25T12:23:04.651Z,13.68
2022-12-25T12:24:04.621Z,13.72
2022-12-25T12:25:04.609Z,13.70
2022-12-25T12:26:04.595Z,13.58
2022-12-25T12:27:04.597Z,13.54
2022-12-25T12:28:05.820Z,13.53
2022-12-25T12:29:04.561Z,13.40
2022-12-25T12:30:04.550Z,13.43
2022-12-25T12:31:04.544Z,13.47
2022-12-25T12:32:04.615Z,13.44
2022-12-25T12:33:04.505Z,13.51
2022-12-25T12:34:04.517Z,13.33
2022-12-25T12:35:04.477Z,13.44
2022-12-25T12:36:04.485Z,13.45
2022-12-25T12:37:04.453Z,13.48
2022-12-25T12:38:04.440Z,13.45
2022-12-25T12:39:04.423Z,13.35
2022-12-25T12:40:04.422Z,13.41
2022-12-25T12:41:04.406Z,13.37
2022-12-25T12:42:04.385Z,13.41
2022-12-25T12:43:04.374Z,13.45
2022-12-25T12:44:04.379Z,13.35
2022-12-25T12:45:04.344Z,13.33
2022-12-25T12:46:04.396Z,13.29
2022-12-25T12:47:04.316Z,13.38
2022-12-25T12:48:04.308Z,13.37
2022-12-25T12:49:04.289Z,13.33
2022-12-25T12:50:04.316Z,13.25
2022-12-25T12:51:04.283Z,13.37
2022-12-25T12:52:04.249Z,13.41
2022-12-25T12:53:04.236Z,13.43
2022-12-25T12:54:04.224Z,13.40
2022-12-25T12:55:04.211Z,13.40
2022-12-25T12:56:04.197Z,13.44
2022-12-25T12:57:04.207Z,13.50
2022-12-25T12:58:04.197Z,13.62
2022-12-25T12:59:04.160Z,13.45
2022-12-25T13:00:10.619Z,13.45
2022-12-25T13:01:04.187Z,13.43
2022-12-25T13:02:04.342Z,13.38
2022-12-25T13:03:04.141Z,13.35